Time;durP1;ratioP1;P1;durP2;ratioP2;P2;SDS_P1;SDS_P2;PMS_P1;PMS_P2;Temp;Humidity;BMP_temperature;BMP_pressure;BME280_temperature;BME280_humidity;BME280_pressure;Samples;Min_cycle;Max_cycle;Signal;HPM_P1;HPM_P2
2020/12/21 00:02:16;;;;;;;;;;;5.80;99.90;;;;;;5068743;28;19920;-65
2020/12/21 00:04:42;;;;;;;;;;;5.80;99.90;;;;;;5064095;28;19916;-65
2020/12/21 00:07:07;;;;;;;;;;;5.70;99.90;;;;;;5062174;28;19901;-65
2020/12/21 00:09:33;;;;;;;;;;;5.70;99.90;;;;;;5056724;28;19920;-65
2020/12/21 00:11:58;;;;;;;;;;;5.70;99.90;;;;;;5071048;28;20428;-65
2020/12/21 00:14:24;;;;;;;;;;;5.60;99.90;;;;;;5070110;28;20003;-65
2020/12/21 00:16:50;;;;;;;;;;;5.70;99.90;;;;;;5062657;28;19909;-65
2020/12/21 00:19:20;;;;;;;;;;;5.80;99.90;;;;;;5071133;28;19909;-66
2020/12/21 00:21:46;;;;;;;;;;;5.70;99.90;;;;;;5065946;28;19934;-65
2020/12/21 00:24:12;;;;;;;;;;;5.70;99.90;;;;;;5060331;28;19915;-66
2020/12/21 00:26:37;;;;;;;;;;;5.70;99.90;;;;;;5062751;28;19908;-65
2020/12/21 00:29:03;;;;;;;;;;;5.70;99.90;;;;;;5052127;28;20476;-65
2020/12/21 00:31:30;;;;;;;;;;;5.60;99.90;;;;;;5066432;28;20422;-65
2020/12/21 00:33:56;;;;;;;;;;;5.50;99.90;;;;;;5053113;28;20440;-65
2020/12/21 00:36:21;;;;;;;;;;;5.40;99.90;;;;;;5063312;28;20349;-65
2020/12/21 00:38:47;;;;;;;;;;;5.50;99.90;;;;;;5054742;28;19919;-65
2020/12/21 00:41:14;;;;;;;;;;;5.30;99.90;;;;;;5066570;28;20315;-66
2020/12/21 00:43:40;;;;;;;;;;;5.40;99.90;;;;;;5072489;28;20288;-65
2020/12/21 00:46:06;;;;;;;;;;;5.50;99.90;;;;;;5064424;28;19908;-66
2020/12/21 00:48:33;;;;;;;;;;;5.40;99.90;;;;;;5054345;28;19909;-65
2020/12/21 00:50:58;;;;;;;;;;;5.30;99.90;;;;;;5065703;28;19994;-66
2020/12/21 00:53:24;;;;;;;;;;;5.40;99.90;;;;;;5052430;28;19944;-65
2020/12/21 00:55:50;;;;;;;;;;;5.40;99.90;;;;;;5063088;28;19912;-65
2020/12/21 00:58:16;;;;;;;;;;;5.30;99.90;;;;;;5059754;28;19923;-65
2020/12/21 01:00:41;;;;;;;;;;;5.50;99.90;;;;;;5067314;28;19914;-65
2020/12/21 01:03:07;;;;;;;;;;;5.50;99.90;;;;;;5073064;28;19916;-65
2020/12/21 01:05:32;;;;;;;;;;;5.40;99.90;;;;;;5065510;28;19908;-66
2020/12/21 01:07:58;;;;;;;;;;;5.40;99.90;;;;;;5069887;28;19936;-64
2020/12/21 01:10:23;;;;;;;;;;;5.40;99.90;;;;;;5065386;28;19923;-65
2020/12/21 01:12:49;;;;;;;;;;;5.40;99.90;;;;;;5065626;28;19915;-65
2020/12/21 01:15:14;;;;;;;;;;;5.10;99.90;;;;;;5064678;28;19916;-66
2020/12/21 01:17:40;;;;;;;;;;;5.10;99.90;;;;;;5069436;28;19927;-65
2020/12/21 01:20:05;;;;;;;;;;;5.10;99.90;;;;;;5049115;28;19915;-65
2020/12/21 01:22:31;;;;;;;;;;;5.20;99.90;;;;;;5058460;28;19935;-65
2020/12/21 01:24:56;;;;;;;;;;;5.20;99.90;;;;;;5059280;28;19978;-65
2020/12/21 01:27:22;;;;;;;;;;;5.20;99.90;;;;;;5070745;28;20025;-65
2020/12/21 01:29:47;;;;;;;;;;;5.20;99.90;;;;;;5065732;28;19961;-65
2020/12/21 01:32:13;;;;;;;;;;;5.00;99.90;;;;;;5060319;28;19905;-65
2020/12/21 01:34:38;;;;;;;;;;;4.90;99.90;;;;;;5054414;28;19909;-66
2020/12/21 01:37:04;;;;;;;;;;;5.00;99.90;;;;;;5060557;28;19905;-65
2020/12/21 01:39:30;;;;;;;;;;;4.90;99.90;;;;;;5055335;28;19908;-65
2020/12/21 01:41:55;;;;;;;;;;;4.90;99.90;;;;;;5068709;28;19912;-65
2020/12/21 01:44:21;;;;;;;;;;;4.90;99.90;;;;;;5069645;28;20517;-66
2020/12/21 01:46:46;;;;;;;;;;;4.80;99.90;;;;;;5062511;28;19993;-65
2020/12/21 01:49:12;;;;;;;;;;;4.80;99.90;;;;;;5066941;28;19963;-65
2020/12/21 01:51:37;;;;;;;;;;;4.90;99.90;;;;;;5061348;28;19905;-65
2020/12/21 01:54:03;;;;;;;;;;;4.70;99.90;;;;;;5050376;28;20427;-64
2020/12/21 01:56:29;;;;;;;;;;;4.50;99.90;;;;;;5060458;28;19904;-66
2020/12/21 01:58:54;;;;;;;;;;;4.40;99.90;;;;;;5066299;28;20327;-66
2020/12/21 02:01:20;;;;;;;;;;;4.40;99.90;;;;;;5061972;28;19909;-65
2020/12/21 02:03:46;;;;;;;;;;;4.50;99.90;;;;;;5054219;28;20003;-65
2020/12/21 02:06:11;;;;;;;;;;;4.50;99.90;;;;;;5064152;28;19916;-65
2020/12/21 02:08:37;;;;;;;;;;;4.50;99.90;;;;;;5061900;28;20424;-65
2020/12/21 02:11:03;;;;;;;;;;;4.70;99.90;;;;;;5063148;28;19920;-66
2020/12/21 02:13:29;;;;;;;;;;;4.60;99.90;;;;;;5054328;28;19947;-65
2020/12/21 02:15:55;;;;;;;;;;;4.50;99.90;;;;;;5064378;28;19947;-65
2020/12/21 02:18:20;;;;;;;;;;;4.60;99.90;;;;;;5051056;28;19913;-65
2020/12/21 02:20:46;;;;;;;;;;;4.50;99.90;;;;;;5063989;28;20371;-65
2020/12/21 02:23:11;;;;;;;;;;;4.50;99.90;;;;;;5052121;28;19919;-64
2020/12/21 02:25:37;;;;;;;;;;;4.50;99.90;;;;;;5064065;28;19912;-65
2020/12/21 02:28:02;;;;;;;;;;;4.60;99.90;;;;;;5068270;28;19948;-66
2020/12/21 02:30:28;;;;;;;;;;;4.50;99.90;;;;;;5058026;28;19963;-65
2020/12/21 02:32:53;;;;;;;;;;;4.50;99.90;;;;;;5054187;28;20352;-65
2020/12/21 02:35:19;;;;;;;;;;;4.60;99.90;;;;;;5061282;28;19935;-65
2020/12/21 02:37:44;;;;;;;;;;;4.70;99.90;;;;;;5068137;28;19908;-65
2020/12/21 02:40:10;;;;;;;;;;;4.50;99.90;;;;;;5056129;28;19905;-65
2020/12/21 02:42:35;;;;;;;;;;;4.50;99.90;;;;;;5058816;28;19997;-66
2020/12/21 02:45:02;;;;;;;;;;;4.60;99.90;;;;;;5063492;28;20430;-65
2020/12/21 02:47:28;;;;;;;;;;;4.60;99.90;;;;;;5057726;28;19909;-65
2020/12/21 02:49:53;;;;;;;;;;;4.60;99.90;;;;;;5052003;28;19904;-64
2020/12/21 02:52:19;;;;;;;;;;;4.60;99.90;;;;;;5062237;28;20249;-65
2020/12/21 02:54:47;;;;;;;;;;;4.50;99.90;;;;;;5063898;28;20293;-65
2020/12/21 02:57:13;;;;;;;;;;;4.70;99.90;;;;;;5069545;28;19927;-65
2020/12/21 02:59:39;;;;;;;;;;;4.60;99.90;;;;;;5055853;28;20380;-65
2020/12/21 03:02:05;;;;;;;;;;;4.70;99.90;;;;;;5068450;28;19923;-65
2020/12/21 03:04:31;;;;;;;;;;;4.70;99.90;;;;;;5057488;28;19909;-65
2020/12/21 03:06:56;;;;;;;;;;;4.70;99.90;;;;;;5069288;28;19904;-65
2020/12/21 03:09:22;;;;;;;;;;;4.70;99.90;;;;;;5058893;28;20043;-65
2020/12/21 03:11:47;;;;;;;;;;;4.70;99.90;;;;;;5068616;28;19916;-64
2020/12/21 03:14:13;;;;;;;;;;;4.70;99.90;;;;;;5052845;28;19939;-65
2020/12/21 03:16:39;;;;;;;;;;;4.80;99.90;;;;;;5064996;28;19909;-65
2020/12/21 03:19:04;;;;;;;;;;;4.80;99.90;;;;;;5055414;28;19908;-65
2020/12/21 03:21:30;;;;;;;;;;;4.80;99.90;;;;;;5066734;28;19980;-65
2020/12/21 03:23:56;;;;;;;;;;;4.80;99.90;;;;;;5059653;28;20365;-65
2020/12/21 03:26:22;;;;;;;;;;;4.70;99.90;;;;;;5065238;28;19915;-66
2020/12/21 03:28:47;;;;;;;;;;;4.60;99.90;;;;;;5057842;28;20285;-66
2020/12/21 03:31:13;;;;;;;;;;;4.60;99.90;;;;;;5065915;28;19914;-65
2020/12/21 03:33:39;;;;;;;;;;;4.50;99.90;;;;;;5059672;28;19908;-66
2020/12/21 03:36:04;;;;;;;;;;;4.50;99.90;;;;;;5065013;28;19913;-65
2020/12/21 03:38:30;;;;;;;;;;;4.60;99.90;;;;;;5067896;28;19904;-64
2020/12/21 03:40:55;;;;;;;;;;;4.60;99.90;;;;;;5065748;28;19991;-66
2020/12/21 03:43:21;;;;;;;;;;;4.50;99.90;;;;;;5066388;28;19974;-65
2020/12/21 03:45:47;;;;;;;;;;;4.60;99.90;;;;;;5068195;28;19935;-65
2020/12/21 03:48:13;;;;;;;;;;;4.70;99.90;;;;;;5071899;28;19904;-64
2020/12/21 03:50:39;;;;;;;;;;;4.60;99.90;;;;;;5067323;28;19974;-66
2020/12/21 03:53:04;;;;;;;;;;;4.60;99.90;;;;;;5064017;28;19927;-64
2020/12/21 03:55:30;;;;;;;;;;;4.50;99.90;;;;;;5065090;28;19905;-65
2020/12/21 03:57:55;;;;;;;;;;;4.60;99.90;;;;;;5071237;28;19999;-65
2020/12/21 04:00:21;;;;;;;;;;;4.60;99.90;;;;;;5067722;28;19908;-65
2020/12/21 04:02:46;;;;;;;;;;;4.60;99.90;;;;;;5059562;28;20348;-65
2020/12/21 04:05:12;;;;;;;;;;;4.30;99.90;;;;;;5059233;28;19916;-65
2020/12/21 04:07:37;;;;;;;;;;;4.40;99.90;;;;;;5061093;28;19915;-66
2020/12/21 04:10:04;;;;;;;;;;;4.60;99.90;;;;;;5065630;28;19924;-66
2020/12/21 04:12:29;;;;;;;;;;;4.60;99.90;;;;;;5065287;28;20007;-65
2020/12/21 04:14:55;;;;;;;;;;;4.60;99.90;;;;;;5064810;28;20400;-65
2020/12/21 04:17:20;;;;;;;;;;;4.50;99.90;;;;;;5063445;28;19901;-65
2020/12/21 04:19:46;;;;;;;;;;;4.60;99.90;;;;;;5072914;28;19938;-65
2020/12/21 04:22:11;;;;;;;;;;;4.50;99.90;;;;;;5079294;28;19916;-65
2020/12/21 04:24:37;;;;;;;;;;;4.60;99.90;;;;;;5073115;28;19982;-65
2020/12/21 04:27:02;;;;;;;;;;;4.40;99.90;;;;;;5066332;28;20192;-67
2020/12/21 04:29:28;;;;;;;;;;;4.50;99.90;;;;;;5077074;28;19904;-65
2020/12/21 04:31:54;;;;;;;;;;;4.40;99.90;;;;;;5070762;28;20185;-65
2020/12/21 04:34:19;;;;;;;;;;;4.40;99.90;;;;;;5057254;28;19915;-66
2020/12/21 04:36:45;;;;;;;;;;;4.50;99.90;;;;;;5065654;28;19916;-66
2020/12/21 04:39:10;;;;;;;;;;;4.40;99.90;;;;;;5058733;28;19963;-65
2020/12/21 04:41:36;;;;;;;;;;;4.50;99.90;;;;;;5073725;28;20428;-65
2020/12/21 04:44:02;;;;;;;;;;;4.50;99.90;;;;;;5076843;28;19922;-66
2020/12/21 04:46:27;;;;;;;;;;;4.40;99.90;;;;;;5072468;28;19991;-65
2020/12/21 04:48:58;;;;;;;;;;;4.40;99.90;;;;;;5071496;28;19904;-65
2020/12/21 04:51:26;;;;;;;;;;;4.40;99.90;;;;;;5074393;28;19915;-65
2020/12/21 04:53:51;;;;;;;;;;;4.30;99.90;;;;;;5071030;28;20364;-64
2020/12/21 04:56:19;;;;;;;;;;;4.30;99.90;;;;;;5065526;28;19917;-65
2020/12/21 04:58:45;;;;;;;;;;;4.00;99.90;;;;;;5052416;28;19908;-63
2020/12/21 05:01:11;;;;;;;;;;;5.20;99.90;;;;;;5064296;28;19927;-63
2020/12/21 05:03:36;;;;;;;;;;;4.60;99.90;;;;;;5061645;28;19912;-63
2020/12/21 05:06:06;;;;;;;;;;;4.40;99.90;;;;;;5069499;28;19938;-63
2020/12/21 05:08:31;;;;;;;;;;;4.40;99.90;;;;;;5071381;28;19919;-64
2020/12/21 05:10:58;;;;;;;;;;;4.40;99.90;;;;;;5068477;28;19912;-63
2020/12/21 05:13:24;;;;;;;;;;;4.20;99.90;;;;;;5060046;28;19930;-64
2020/12/21 05:15:54;;;;;;;;;;;4.30;99.90;;;;;;5062456;28;19908;-64
2020/12/21 05:18:23;;;;;;;;;;;4.30;99.90;;;;;;5052580;28;19912;-63
2020/12/21 05:20:54;;;;;;;;;;;4.30;99.90;;;;;;5065090;28;19908;-63
2020/12/21 05:23:19;;;;;;;;;;;4.40;99.90;;;;;;5064956;28;19957;-64
2020/12/21 05:25:45;;;;;;;;;;;4.30;99.90;;;;;;5065425;28;20311;-63
2020/12/21 05:28:11;;;;;;;;;;;4.40;99.90;;;;;;5053722;28;20439;-62
2020/12/21 05:30:49;;;;;;;;;;;4.20;99.90;;;;;;5065158;28;19915;-64
2020/12/21 05:33:15;;;;;;;;;;;4.20;99.90;;;;;;5063544;28;19954;-63
2020/12/21 05:35:40;;;;;;;;;;;4.10;99.90;;;;;;5068767;28;19912;-63
2020/12/21 05:38:06;;;;;;;;;;;4.10;99.90;;;;;;5070444;28;19951;-63
2020/12/21 05:40:32;;;;;;;;;;;4.00;99.90;;;;;;5069845;28;19908;-62
2020/12/21 05:42:57;;;;;;;;;;;3.80;99.90;;;;;;5070021;28;19924;-63
2020/12/21 05:45:23;;;;;;;;;;;3.90;99.90;;;;;;5064860;28;19931;-63
2020/12/21 05:47:49;;;;;;;;;;;4.00;99.90;;;;;;5056444;28;20387;-63
2020/12/21 05:50:18;;;;;;;;;;;4.00;99.90;;;;;;5059320;28;19987;-63
2020/12/21 05:52:44;;;;;;;;;;;4.00;99.90;;;;;;5068469;28;20010;-64
2020/12/21 05:55:10;;;;;;;;;;;4.10;99.90;;;;;;5064738;28;20472;-63
2020/12/21 05:57:39;;;;;;;;;;;4.10;99.90;;;;;;5069687;28;19997;-63
2020/12/21 06:00:08;;;;;;;;;;;4.10;99.90;;;;;;5067620;28;19914;-64
2020/12/21 06:02:34;;;;;;;;;;;4.10;99.90;;;;;;5067387;28;19916;-64
2020/12/21 06:05:04;;;;;;;;;;;4.20;99.90;;;;;;5058269;28;19909;-64
2020/12/21 06:07:30;;;;;;;;;;;4.10;99.90;;;;;;5058673;28;20003;-64
2020/12/21 06:09:57;;;;;;;;;;;4.30;99.90;;;;;;5054922;28;19923;-63
2020/12/21 06:12:23;;;;;;;;;;;4.30;99.90;;;;;;5059457;28;19940;-63
2020/12/21 06:14:50;;;;;;;;;;;4.30;99.90;;;;;;5054899;28;19963;-64
2020/12/21 06:17:15;;;;;;;;;;;4.30;99.90;;;;;;5068143;28;19908;-64
2020/12/21 06:19:41;;;;;;;;;;;4.30;99.90;;;;;;5063260;28;20453;-64
2020/12/21 06:22:06;;;;;;;;;;;4.30;99.90;;;;;;5061037;28;19935;-64
2020/12/21 06:24:38;;;;;;;;;;;4.30;99.90;;;;;;5053100;28;19944;-62
2020/12/21 06:27:14;;;;;;;;;;;4.30;99.90;;;;;;5062816;28;19908;-62
2020/12/21 06:29:39;;;;;;;;;;;4.40;99.90;;;;;;5060875;28;19967;-67
2020/12/21 06:32:06;;;;;;;;;;;4.50;99.90;;;;;;5076848;28;19900;-63
2020/12/21 06:34:31;;;;;;;;;;;4.40;99.90;;;;;;5071712;28;19966;-62
2020/12/21 06:37:01;;;;;;;;;;;4.40;99.90;;;;;;5069295;28;19916;-64
2020/12/21 06:39:26;;;;;;;;;;;4.40;99.90;;;;;;5069686;28;19908;-63
2020/12/21 06:42:01;;;;;;;;;;;4.50;99.90;;;;;;5077678;28;19916;-66
2020/12/21 06:44:27;;;;;;;;;;;4.40;99.90;;;;;;5073220;28;19904;-67
2020/12/21 06:46:53;;;;;;;;;;;4.50;99.90;;;;;;5050587;28;20349;-66
2020/12/21 06:49:18;;;;;;;;;;;4.60;99.90;;;;;;5068179;28;19994;-62
2020/12/21 06:51:47;;;;;;;;;;;4.60;99.90;;;;;;5069247;28;19904;-63
2020/12/21 06:54:13;;;;;;;;;;;4.60;99.90;;;;;;5067183;28;19920;-63
2020/12/21 06:56:39;;;;;;;;;;;4.50;99.90;;;;;;5066608;28;20007;-67
2020/12/21 06:59:09;;;;;;;;;;;4.60;99.90;;;;;;5068560;28;19911;-63
2020/12/21 07:01:35;;;;;;;;;;;4.80;99.90;;;;;;5070633;28;19955;-63
2020/12/21 07:04:01;;;;;;;;;;;4.90;99.90;;;;;;5067930;28;20404;-62
2020/12/21 07:06:26;;;;;;;;;;;4.70;99.90;;;;;;5067988;28;20525;-63
2020/12/21 07:08:56;;;;;;;;;;;4.60;99.90;;;;;;5067585;28;19912;-63
2020/12/21 07:11:22;;;;;;;;;;;4.70;99.90;;;;;;5068200;28;20324;-63
2020/12/21 07:13:48;;;;;;;;;;;4.80;99.90;;;;;;5069017;28;19909;-64
2020/12/21 07:16:16;;;;;;;;;;;4.90;99.90;;;;;;5068711;28;19947;-63
2020/12/21 07:18:41;;;;;;;;;;;5.00;99.90;;;;;;5068261;28;19908;-63
2020/12/21 07:21:08;;;;;;;;;;;5.00;99.90;;;;;;5067382;28;19919;-63
2020/12/21 07:23:33;;;;;;;;;;;5.10;99.90;;;;;;5069498;28;20353;-63
2020/12/21 07:25:59;;;;;;;;;;;5.00;99.90;;;;;;5067218;28;19916;-64
2020/12/21 07:28:24;;;;;;;;;;;5.00;99.90;;;;;;5069527;28;19908;-64
2020/12/21 07:30:50;;;;;;;;;;;5.00;99.90;;;;;;5066040;28;19916;-63
2020/12/21 07:33:16;;;;;;;;;;;5.00;99.90;;;;;;5065573;28;19908;-64
2020/12/21 07:35:42;;;;;;;;;;;5.00;99.90;;;;;;5070209;28;19975;-64
2020/12/21 07:38:11;;;;;;;;;;;5.00;99.90;;;;;;5070679;28;19908;-63
2020/12/21 07:40:38;;;;;;;;;;;5.00;99.90;;;;;;5059004;28;19934;-63
2020/12/21 07:43:04;;;;;;;;;;;5.10;99.90;;;;;;5062667;28;19974;-63
2020/12/21 07:45:31;;;;;;;;;;;5.10;99.90;;;;;;5060218;28;19908;-64
2020/12/21 07:47:56;;;;;;;;;;;5.10;99.90;;;;;;5054252;28;19923;-65
2020/12/21 07:50:22;;;;;;;;;;;5.30;99.90;;;;;;5055591;28;19986;-64
2020/12/21 07:52:47;;;;;;;;;;;5.20;99.90;;;;;;5067373;28;19919;-63
2020/12/21 07:55:14;;;;;;;;;;;5.30;99.90;;;;;;5055835;28;19908;-63
2020/12/21 07:57:40;;;;;;;;;;;5.40;99.90;;;;;;5058116;28;20368;-63
2020/12/21 08:00:05;;;;;;;;;;;5.30;99.90;;;;;;5054982;28;19955;-65
2020/12/21 08:02:31;;;;;;;;;;;5.40;99.90;;;;;;5069221;28;19960;-64
2020/12/21 08:04:58;;;;;;;;;;;5.40;99.90;;;;;;5060404;28;20050;-64
2020/12/21 08:07:27;;;;;;;;;;;5.30;99.90;;;;;;5052536;28;19982;-67
2020/12/21 08:09:53;;;;;;;;;;;5.40;99.90;;;;;;5056890;28;19916;-66
2020/12/21 08:12:19;;;;;;;;;;;5.50;99.90;;;;;;5062275;28;19915;-68
2020/12/21 08:14:44;;;;;;;;;;;5.50;99.90;;;;;;5060547;28;20239;-64
2020/12/21 08:17:11;;;;;;;;;;;5.50;99.90;;;;;;5055945;28;20364;-64
2020/12/21 08:19:49;;;;;;;;;;;5.50;99.90;;;;;;5060178;28;19908;-64
2020/12/21 08:22:21;;;;;;;;;;;5.60;99.90;;;;;;5061397;28;19920;-64
2020/12/21 08:24:58;;;;;;;;;;;5.60;99.90;;;;;;5056155;28;20339;-63
2020/12/21 08:27:24;;;;;;;;;;;5.60;99.90;;;;;;5067513;28;19904;-64
2020/12/21 08:29:50;;;;;;;;;;;5.80;99.90;;;;;;5061200;28;20078;-64
2020/12/21 08:32:16;;;;;;;;;;;5.70;99.90;;;;;;5062808;28;20408;-64
2020/12/21 08:34:42;;;;;;;;;;;5.80;99.90;;;;;;5062143;28;19908;-64
2020/12/21 08:37:07;;;;;;;;;;;6.00;99.90;;;;;;5069766;28;20379;-64
2020/12/21 08:39:33;;;;;;;;;;;5.90;99.90;;;;;;5069911;28;20280;-64
2020/12/21 08:41:59;;;;;;;;;;;6.10;99.90;;;;;;5061532;28;19920;-65
2020/12/21 08:44:26;;;;;;;;;;;6.20;99.90;;;;;;5068175;28;19909;-64
2020/12/21 08:47:00;;;;;;;;;;;6.10;99.90;;;;;;5061531;28;19947;-64
2020/12/21 08:49:26;;;;;;;;;;;6.10;99.90;;;;;;5055142;28;19916;-64
2020/12/21 08:51:53;;;;;;;;;;;6.20;99.90;;;;;;5062685;28;19909;-64
2020/12/21 08:54:18;;;;;;;;;;;6.40;99.90;;;;;;5054124;28;19912;-65
2020/12/21 08:56:47;;;;;;;;;;;6.30;99.90;;;;;;5062422;28;19950;-64
2020/12/21 08:59:14;;;;;;;;;;;6.40;99.90;;;;;;5053266;28;19951;-64
2020/12/21 09:01:40;;;;;;;;;;;6.50;99.90;;;;;;5062864;28;19913;-64
2020/12/21 09:04:05;;;;;;;;;;;6.50;99.90;;;;;;5067004;28;19909;-64
2020/12/21 09:06:31;;;;;;;;;;;6.70;99.90;;;;;;5063178;28;19911;-66
2020/12/21 09:08:56;;;;;;;;;;;6.80;99.90;;;;;;5052068;28;19923;-64
2020/12/21 09:11:22;;;;;;;;;;;6.90;99.90;;;;;;5065964;28;19912;-64
2020/12/21 09:13:48;;;;;;;;;;;7.00;99.90;;;;;;5072340;28;19904;-64
2020/12/21 09:16:23;;;;;;;;;;;7.10;99.90;;;;;;5064393;28;19916;-65
2020/12/21 09:18:49;;;;;;;;;;;7.20;99.90;;;;;;5052176;28;20003;-64
2020/12/21 09:21:18;;;;;;;;;;;7.30;99.90;;;;;;5063198;28;20012;-64
2020/12/21 09:23:44;;;;;;;;;;;7.20;99.90;;;;;;5056845;28;20175;-64
2020/12/21 09:26:09;;;;;;;;;;;7.50;99.90;;;;;;5067339;28;19909;-65
2020/12/21 09:28:35;;;;;;;;;;;7.50;99.90;;;;;;5060028;28;20008;-64
2020/12/21 09:31:00;;;;;;;;;;;7.60;99.90;;;;;;5060375;28;20845;-64
2020/12/21 09:33:26;;;;;;;;;;;7.70;99.90;;;;;;5062016;28;19912;-64
2020/12/21 09:35:51;;;;;;;;;;;7.70;99.90;;;;;;5059454;28;20375;-65
2020/12/21 09:38:17;;;;;;;;;;;7.80;99.90;;;;;;5064487;28;19916;-63
2020/12/21 09:40:42;;;;;;;;;;;7.80;99.90;;;;;;5066560;28;19904;-64
2020/12/21 09:43:08;;;;;;;;;;;7.90;99.90;;;;;;5065128;28;20522;-64
2020/12/21 09:45:33;;;;;;;;;;;8.00;99.90;;;;;;5057667;28;19961;-64
2020/12/21 09:47:59;;;;;;;;;;;8.00;99.90;;;;;;5063379;28;19946;-64
2020/12/21 09:50:24;;;;;;;;;;;8.10;99.90;;;;;;5066825;28;20002;-64
2020/12/21 09:52:50;;;;;;;;;;;8.20;99.90;;;;;;5068361;28;19908;-60
2020/12/21 09:55:16;;;;;;;;;;;8.30;99.90;;;;;;5068695;28;19913;-61
2020/12/21 09:57:42;;;;;;;;;;;8.50;99.90;;;;;;5069845;28;20687;-60
2020/12/21 10:00:07;;;;;;;;;;;8.50;99.90;;;;;;5067665;28;19909;-61
2020/12/21 10:02:33;;;;;;;;;;;8.60;99.90;;;;;;5068386;28;19932;-60
2020/12/21 10:04:58;;;;;;;;;;;8.70;99.90;;;;;;5067759;28;19949;-60
2020/12/21 10:07:24;;;;;;;;;;;8.70;99.90;;;;;;5069939;28;19915;-60
2020/12/21 10:09:49;;;;;;;;;;;8.70;99.90;;;;;;5065520;28;19924;-60
2020/12/21 10:12:15;;;;;;;;;;;8.80;99.90;;;;;;5067755;28;19908;-60
2020/12/21 10:14:43;;;;;;;;;;;8.80;99.90;;;;;;5066861;28;19987;-60
2020/12/21 10:17:08;;;;;;;;;;;8.90;99.90;;;;;;5054781;28;20277;-62
2020/12/21 10:19:34;;;;;;;;;;;8.90;99.90;;;;;;5060859;28;19999;-61
2020/12/21 10:21:59;;;;;;;;;;;8.90;99.90;;;;;;5061830;28;19919;-61
2020/12/21 10:24:25;;;;;;;;;;;9.10;99.90;;;;;;5061758;28;20377;-61
2020/12/21 10:26:50;;;;;;;;;;;9.20;99.90;;;;;;5062017;28;20000;-61
2020/12/21 10:29:16;;;;;;;;;;;9.30;99.90;;;;;;5062054;28;20292;-60
2020/12/21 10:31:42;;;;;;;;;;;9.40;99.90;;;;;;5069999;28;19908;-63
2020/12/21 10:34:07;;;;;;;;;;;9.60;99.90;;;;;;5072270;28;19958;-60
2020/12/21 10:36:33;;;;;;;;;;;9.60;99.90;;;;;;5068424;28;19915;-60
2020/12/21 10:38:59;;;;;;;;;;;9.50;99.90;;;;;;5069294;28;19961;-64
2020/12/21 10:41:29;;;;;;;;;;;9.60;99.90;;;;;;5065437;28;20018;-61
2020/12/21 10:43:55;;;;;;;;;;;9.60;99.90;;;;;;5069747;28;19908;-60
2020/12/21 10:46:21;;;;;;;;;;;9.80;99.90;;;;;;5064505;28;20376;-65
2020/12/21 10:48:47;;;;;;;;;;;10.00;99.90;;;;;;5068683;28;19912;-66
2020/12/21 10:51:12;;;;;;;;;;;10.10;99.90;;;;;;5063923;28;19939;-65
2020/12/21 10:53:38;;;;;;;;;;;10.30;99.90;;;;;;5050210;28;19933;-65
2020/12/21 10:56:03;;;;;;;;;;;10.50;99.90;;;;;;5064815;28;19923;-65
2020/12/21 10:58:29;;;;;;;;;;;10.40;99.90;;;;;;5063212;28;20388;-65
2020/12/21 11:00:54;;;;;;;;;;;10.40;99.90;;;;;;5066642;28;20258;-65
2020/12/21 11:03:20;;;;;;;;;;;10.50;99.90;;;;;;5069414;28;19920;-65
2020/12/21 11:05:45;;;;;;;;;;;10.40;99.90;;;;;;5062069;28;19909;-65
2020/12/21 11:08:11;;;;;;;;;;;10.30;99.90;;;;;;5073785;28;19905;-66
2020/12/21 11:10:36;;;;;;;;;;;10.40;99.90;;;;;;5065465;28;20335;-65
2020/12/21 11:13:02;;;;;;;;;;;10.30;99.90;;;;;;5067419;28;19909;-67
2020/12/21 11:15:27;;;;;;;;;;;10.40;99.90;;;;;;5066273;28;19909;-67
2020/12/21 11:17:53;;;;;;;;;;;10.40;99.90;;;;;;5069496;28;19986;-68
2020/12/21 11:20:19;;;;;;;;;;;10.30;99.90;;;;;;5066680;28;19909;-66
2020/12/21 11:22:44;;;;;;;;;;;10.50;99.90;;;;;;5068870;28;19916;-65
2020/12/21 11:25:11;;;;;;;;;;;10.30;99.90;;;;;;5067909;28;20325;-65
2020/12/21 11:27:36;;;;;;;;;;;10.40;99.90;;;;;;5066036;28;19915;-66
2020/12/21 11:30:03;;;;;;;;;;;10.40;99.90;;;;;;5064627;28;19909;-66
2020/12/21 11:32:28;;;;;;;;;;;10.30;99.90;;;;;;5067104;28;20280;-63
2020/12/21 11:34:54;;;;;;;;;;;10.50;99.90;;;;;;5057656;28;19908;-65
2020/12/21 11:37:19;;;;;;;;;;;10.50;99.90;;;;;;5061567;28;19916;-64
2020/12/21 11:39:45;;;;;;;;;;;10.60;99.90;;;;;;5060975;28;19983;-63
2020/12/21 11:42:10;;;;;;;;;;;10.70;99.90;;;;;;5065229;28;19923;-63
2020/12/21 11:44:36;;;;;;;;;;;10.70;99.90;;;;;;5058818;28;19909;-63
2020/12/21 11:47:07;;;;;;;;;;;10.70;99.90;;;;;;5057444;28;19919;-63
2020/12/21 11:49:33;;;;;;;;;;;10.80;99.90;;;;;;5058250;28;19915;-63
2020/12/21 11:51:58;;;;;;;;;;;10.80;99.90;;;;;;5061463;28;19994;-64
2020/12/21 11:54:24;;;;;;;;;;;10.80;99.90;;;;;;5059003;28;20391;-62
2020/12/21 11:56:54;;;;;;;;;;;10.80;99.90;;;;;;5065850;28;19928;-63
2020/12/21 11:59:19;;;;;;;;;;;10.90;99.90;;;;;;5060703;28;19916;-63
2020/12/21 12:01:45;;;;;;;;;;;10.80;99.90;;;;;;5065919;28;19912;-63
2020/12/21 12:04:10;;;;;;;;;;;10.80;99.90;;;;;;5063365;28;19915;-63
2020/12/21 12:06:36;;;;;;;;;;;10.90;99.90;;;;;;5070776;28;20359;-63
2020/12/21 12:09:01;;;;;;;;;;;11.00;99.90;;;;;;5070716;28;19920;-64
2020/12/21 12:11:27;;;;;;;;;;;11.00;99.90;;;;;;5064925;28;19920;-64
2020/12/21 12:13:52;;;;;;;;;;;11.00;99.90;;;;;;5064758;28;19913;-62
2020/12/21 12:16:19;;;;;;;;;;;11.10;99.90;;;;;;5070462;28;19942;-62
2020/12/21 12:18:44;;;;;;;;;;;11.10;99.90;;;;;;5068548;28;20018;-63
2020/12/21 12:21:10;;;;;;;;;;;11.00;99.90;;;;;;5067885;28;19994;-62
2020/12/21 12:23:35;;;;;;;;;;;11.10;99.90;;;;;;5062330;28;20456;-62
2020/12/21 12:26:01;;;;;;;;;;;11.20;99.90;;;;;;5070848;28;19962;-63
2020/12/21 12:28:26;;;;;;;;;;;11.20;99.90;;;;;;5060792;28;20007;-62
2020/12/21 12:30:52;;;;;;;;;;;11.30;99.90;;;;;;5068805;28;19961;-63
2020/12/21 12:33:17;;;;;;;;;;;11.30;99.90;;;;;;5066372;28;19961;-63
2020/12/21 12:35:43;;;;;;;;;;;11.40;99.90;;;;;;5065176;28;19969;-63
2020/12/21 12:38:09;;;;;;;;;;;11.40;99.90;;;;;;5064091;28;19909;-63
2020/12/21 12:40:34;;;;;;;;;;;11.40;99.90;;;;;;5062820;28;20391;-63
2020/12/21 12:43:00;;;;;;;;;;;11.40;99.90;;;;;;5064705;28;19927;-63
2020/12/21 12:45:25;;;;;;;;;;;11.40;99.90;;;;;;5063290;28;19909;-63
2020/12/21 12:47:51;;;;;;;;;;;11.50;99.90;;;;;;5065976;28;20360;-63
2020/12/21 12:50:16;;;;;;;;;;;11.50;99.90;;;;;;5061733;28;19908;-63
2020/12/21 12:52:42;;;;;;;;;;;11.60;99.90;;;;;;5064271;28;19916;-62
2020/12/21 12:55:07;;;;;;;;;;;11.60;99.90;;;;;;5060976;28;19908;-63
2020/12/21 12:57:33;;;;;;;;;;;11.50;99.90;;;;;;5065913;28;19914;-63
2020/12/21 12:59:58;;;;;;;;;;;11.60;99.90;;;;;;5048668;28;19909;-63
2020/12/21 13:02:24;;;;;;;;;;;11.60;99.90;;;;;;5067108;28;19917;-62
2020/12/21 13:04:49;;;;;;;;;;;11.80;99.90;;;;;;5060169;28;20288;-62
2020/12/21 13:07:15;;;;;;;;;;;11.80;99.90;;;;;;5063235;28;19955;-63
2020/12/21 13:09:40;;;;;;;;;;;11.80;99.90;;;;;;5060067;28;20039;-65
2020/12/21 13:12:06;;;;;;;;;;;11.70;99.90;;;;;;5056344;28;19909;-63
2020/12/21 13:14:31;;;;;;;;;;;11.90;99.90;;;;;;5059020;28;19908;-64
2020/12/21 13:16:57;;;;;;;;;;;11.70;99.90;;;;;;5064224;28;19916;-64
2020/12/21 13:19:22;;;;;;;;;;;11.80;99.90;;;;;;5070116;28;20004;-64
2020/12/21 13:21:50;;;;;;;;;;;11.90;99.90;;;;;;5064913;28;20007;-65
2020/12/21 13:24:16;;;;;;;;;;;11.90;99.90;;;;;;5063979;28;19909;-65
2020/12/21 13:26:42;;;;;;;;;;;11.80;99.90;;;;;;5062436;28;20319;-65
2020/12/21 13:29:07;;;;;;;;;;;11.60;99.90;;;;;;5066285;28;20392;-65
2020/12/21 13:31:33;;;;;;;;;;;11.60;99.90;;;;;;5062335;28;19904;-65
2020/12/21 13:33:58;;;;;;;;;;;11.50;99.90;;;;;;5051135;28;19905;-65
2020/12/21 13:36:24;;;;;;;;;;;11.40;99.90;;;;;;5062997;28;19915;-65
2020/12/21 13:38:49;;;;;;;;;;;11.30;99.90;;;;;;5051850;28;19904;-66
2020/12/21 13:41:15;;;;;;;;;;;11.40;99.90;;;;;;5061377;28;20422;-66
2020/12/21 13:43:40;;;;;;;;;;;11.20;99.90;;;;;;5062759;28;20474;-66
2020/12/21 13:46:07;;;;;;;;;;;11.20;99.90;;;;;;5065391;28;19967;-66
2020/12/21 13:48:32;;;;;;;;;;;11.30;99.90;;;;;;5051655;28;20385;-66
2020/12/21 13:50:58;;;;;;;;;;;11.10;99.90;;;;;;5061310;28;19987;-65
2020/12/21 13:53:24;;;;;;;;;;;11.00;99.90;;;;;;5052664;28;19948;-66
2020/12/21 13:55:49;;;;;;;;;;;10.90;99.90;;;;;;5060122;28;20430;-65
2020/12/21 13:58:15;;;;;;;;;;;10.90;99.90;;;;;;5053866;28;20476;-66
2020/12/21 14:00:40;;;;;;;;;;;10.80;99.90;;;;;;5064121;28;19909;-66
2020/12/21 14:03:06;;;;;;;;;;;10.80;99.90;;;;;;5070976;28;19928;-67
2020/12/21 14:05:31;;;;;;;;;;;10.70;99.90;;;;;;5064796;28;19908;-66
2020/12/21 14:07:57;;;;;;;;;;;10.90;99.90;;;;;;5056027;28;19912;-66
2020/12/21 14:10:22;;;;;;;;;;;10.90;99.90;;;;;;5054560;28;19925;-66
2020/12/21 14:12:48;;;;;;;;;;;10.90;99.90;;;;;;5059917;28;19958;-66
2020/12/21 14:15:13;;;;;;;;;;;10.90;99.90;;;;;;5066695;28;19987;-70
2020/12/21 14:17:39;;;;;;;;;;;10.60;99.90;;;;;;5069303;28;20003;-65
2020/12/21 14:20:04;;;;;;;;;;;10.70;99.90;;;;;;5067818;28;19915;-65